MV Nord Discovery — 3EGP — position and weather

sailwx.info

Track history (hours):
 
Tides and Currents Weather Stations Pressure Air Temp Water Temp Dewpoint Dewpoint Depression Visibility Wind Speed Wind Dir Waves Ship Positions

MV Nord Discovery

Last reported at 2014-Dec-30 07:08 UTC. Time now 2015-Feb-02 01:47 UTC.
Position S 24°10' W 046°21'.
Warning: this ship's position is 33 days out of date.

Length 183 m; draft 12.1 m.

Type: Cargo ship. MMSI: 354855000.

Date/timePositionNaut miles runAvg speedWind from/ knotsBaromVisibWave heightAir tempDewpointWater temp
2014-Dec-30 07:08S 24°10' W 046°21'610.7
2014-Dec-30 06:33S 24°03' W 046°22'7 6.7
2014-Dec-30 05:34S 23°57' W 046°18'1 1.0
2014-Dec-30 04:26S 23°57' W 046°19'0 0.0
2014-Dec-30 03:32S 23°57' W 046°19'0 0.0
2014-Dec-30 02:32S 23°57' W 046°19'0 0.0
2014-Dec-30 01:32S 23°57' W 046°19'0 0.0
2014-Dec-30 00:32S 23°57' W 046°19'0 0.0
2014-Dec-29 23:32S 23°57' W 046°19'0 0.0
2014-Dec-29 22:32S 23°57' W 046°19'0 0.0
2014-Dec-29 21:32S 23°57' W 046°19'0 0.0
2014-Dec-29 20:32S 23°57' W 046°19'0 0.0
2014-Dec-29 19:32S 23°57' W 046°19'0 0.0
2014-Dec-29 18:32S 23°57' W 046°19'0 0.0
2014-Dec-29 17:32S 23°57' W 046°19'0 0.0
2014-Dec-29 16:29S 23°57' W 046°19'0 0.0
2014-Dec-29 15:32S 23°57' W 046°19'0 0.0
2014-Dec-29 14:26S 23°57' W 046°19'0 0.0
2014-Dec-29 13:29S 23°57' W 046°19'0 0.0
2014-Dec-29 12:32S 23°57' W 046°19'0 0.0
2014-Dec-29 11:32S 23°57' W 046°19'0 0.0
2014-Dec-29 10:32S 23°57' W 046°19'0 0.0
2014-Dec-29 09:32S 23°57' W 046°19'0 0.0
2014-Dec-29 08:32S 23°57' W 046°19'0 0.0
2014-Dec-29 07:32S 23°57' W 046°19'0 0.0
2014-Dec-29 06:32S 23°57' W 046°19'0 0.0
2014-Dec-29 05:32S 23°57' W 046°19'0 0.0
2014-Dec-29 04:26S 23°57' W 046°19'0 0.0
2014-Dec-29 03:32S 23°57' W 046°19'0 0.0
2014-Dec-29 02:29S 23°57' W 046°19'0 0.0
2014-Dec-29 01:26S 23°57' W 046°19'0 0.0
2014-Dec-29 00:32S 23°57' W 046°19'0 0.0
2014-Dec-28 23:32S 23°57' W 046°19'0 0.0
2014-Dec-28 22:32S 23°57' W 046°19'0 0.0
2014-Dec-28 21:32S 23°57' W 046°19'0 0.0
2014-Dec-28 20:32S 23°57' W 046°19'0 0.0
2014-Dec-28 19:32S 23°57' W 046°19'0 0.0
2014-Dec-28 18:32S 23°57' W 046°19'0 0.0
2014-Dec-28 17:32S 23°57' W 046°19'0 0.0
2014-Dec-28 16:32S 23°57' W 046°19'0 0.0
2014-Dec-28 15:32S 23°57' W 046°19'0 0.0
2014-Dec-28 14:32S 23°57' W 046°19'0 0.0
2014-Dec-28 13:32S 23°57' W 046°19'0 0.0
2014-Dec-28 12:32S 23°57' W 046°19'0 0.0
2014-Dec-28 11:32S 23°57' W 046°19'0 0.0
2014-Dec-28 10:25S 23°57' W 046°19'0 0.0
2014-Dec-28 09:25S 23°57' W 046°19'0 0.0
2014-Dec-28 08:13S 23°57' W 046°19'0 0.0
2014-Dec-28 07:31S 23°57' W 046°19'0 0.0
2014-Dec-28 06:19S 23°57' W 046°19'0 0.0
2014-Dec-28 05:25S 23°57' W 046°19'0 0.0
2014-Dec-28 04:31S 23°57' W 046°19'0 0.0
2014-Dec-28 03:19S 23°57' W 046°19'0 0.0
2014-Dec-28 02:31S 23°57' W 046°19'0 0.0
2014-Dec-28 01:16S 23°57' W 046°19'0 0.0
2014-Dec-28 00:22S 23°57' W 046°19'0 0.0
2014-Dec-27 23:10S 23°57' W 046°19'3 5.1
2014-Dec-27 22:34S 23°60' W 046°18'7 6.6
2014-Dec-27 21:29S 24°07' W 046°19'2 2.5
2014-Dec-27 20:33S 24°06' W 046°17'0 0.0
2014-Dec-27 19:34S 24°06' W 046°17'0 0.0
2014-Dec-27 18:33S 24°06' W 046°17'0 0.0
2014-Dec-27 17:33S 24°06' W 046°17'0 0.0
2014-Dec-27 16:33S 24°06' W 046°17'0 0.0
2014-Dec-27 15:33S 24°06' W 046°17'0 0.5
2014-Dec-27 14:33S 24°06' W 046°17'6 5.3
2014-Dec-27 13:27S 24°01' W 046°20'0 0.1
2014-Dec-27 12:33S 24°01' W 046°20'0 0.2
2014-Dec-27 11:33S 24°01' W 046°20'0 0.1
2014-Dec-27 10:30S 24°01' W 046°20'0 0.0
2014-Dec-27 09:33S 24°01' W 046°20'4 4.2
2014-Dec-27 08:33S 24°05' W 046°18'2 1.7
2014-Dec-27 07:28S 24°06' W 046°17'0 0.0
2014-Dec-27 06:25S 24°06' W 046°17'0 0.0
2014-Dec-27 04:22S 24°06' W 046°17'0 0.0
2014-Dec-27 03:31S 24°06' W 046°17'0 0.0
2014-Dec-27 02:25S 24°06' W 046°17'0 0.0
2014-Dec-27 00:19S 24°06' W 046°17'0 0.0
2014-Dec-26 23:31S 24°06' W 046°17'0 0.0
2014-Dec-26 22:13S 24°06' W 046°17'0 0.0
2014-Dec-26 21:25S 24°06' W 046°17'0 0.0
2014-Dec-26 18:31S 24°06' W 046°17'0 0.3
2014-Dec-26 17:33S 24°07' W 046°17'5 4.5
2014-Dec-26 16:22S 24°11' W 046°14'22411.2
2014-Dec-25 20:27S 23°48' W 042°10'1312.7
2014-Dec-25 19:25S 23°46' W 041°56'1312.5
2014-Dec-25 18:24S 23°44' W 041°42'1112.8
2014-Dec-25 17:33S 23°42' W 041°31'2712.9
2014-Dec-25 15:29S 23°38' W 041°02'1213.4
2014-Dec-25 14:33S 23°36' W 040°49'  
Track history (hours):
 
Tides and Currents Weather Stations Pressure Air Temp Water Temp Dewpoint Dewpoint Depression Visibility Wind Speed Wind Dir Waves Ship Positions

MV Nord Discovery

Last reported at 2014-Dec-30 07:08 UTC. Time now 2015-Feb-02 01:47 UTC.
Position S 24°10' W 046°21'.
Warning: this ship's position is 33 days out of date.

Length 183 m; draft 12.1 m.

Type: Cargo ship. MMSI: 354855000.

Date/timePositionNaut miles runAvg speedWind from/ knotsBaromVisibWave heightAir tempDewpointWater temp
2014-Dec-30 07:08S 24°10' W 046°21'610.7
2014-Dec-30 06:33S 24°03' W 046°22'7 6.7
2014-Dec-30 05:34S 23°57' W 046°18'1 1.0
2014-Dec-30 04:26S 23°57' W 046°19'0 0.0
2014-Dec-30 03:32S 23°57' W 046°19'0 0.0
2014-Dec-30 02:32S 23°57' W 046°19'0 0.0
2014-Dec-30 01:32S 23°57' W 046°19'0 0.0
2014-Dec-30 00:32S 23°57' W 046°19'0 0.0
2014-Dec-29 23:32S 23°57' W 046°19'0 0.0
2014-Dec-29 22:32S 23°57' W 046°19'0 0.0
2014-Dec-29 21:32S 23°57' W 046°19'0 0.0
2014-Dec-29 20:32S 23°57' W 046°19'0 0.0
2014-Dec-29 19:32S 23°57' W 046°19'0 0.0
2014-Dec-29 18:32S 23°57' W 046°19'0 0.0
2014-Dec-29 17:32S 23°57' W 046°19'0 0.0
2014-Dec-29 16:29S 23°57' W 046°19'0 0.0
2014-Dec-29 15:32S 23°57' W 046°19'0 0.0
2014-Dec-29 14:26S 23°57' W 046°19'0 0.0
2014-Dec-29 13:29S 23°57' W 046°19'0 0.0
2014-Dec-29 12:32S 23°57' W 046°19'0 0.0
2014-Dec-29 11:32S 23°57' W 046°19'0 0.0
2014-Dec-29 10:32S 23°57' W 046°19'0 0.0
2014-Dec-29 09:32S 23°57' W 046°19'0 0.0
2014-Dec-29 08:32S 23°57' W 046°19'0 0.0
2014-Dec-29 07:32S 23°57' W 046°19'0 0.0
2014-Dec-29 06:32S 23°57' W 046°19'0 0.0
2014-Dec-29 05:32S 23°57' W 046°19'0 0.0
2014-Dec-29 04:26S 23°57' W 046°19'0 0.0
2014-Dec-29 03:32S 23°57' W 046°19'0 0.0
2014-Dec-29 02:29S 23°57' W 046°19'0 0.0
2014-Dec-29 01:26S 23°57' W 046°19'0 0.0
2014-Dec-29 00:32S 23°57' W 046°19'0 0.0
2014-Dec-28 23:32S 23°57' W 046°19'0 0.0
2014-Dec-28 22:32S 23°57' W 046°19'0 0.0
2014-Dec-28 21:32S 23°57' W 046°19'0 0.0
2014-Dec-28 20:32S 23°57' W 046°19'0 0.0
2014-Dec-28 19:32S 23°57' W 046°19'0 0.0
2014-Dec-28 18:32S 23°57' W 046°19'0 0.0
2014-Dec-28 17:32S 23°57' W 046°19'0 0.0
2014-Dec-28 16:32S 23°57' W 046°19'0 0.0
2014-Dec-28 15:32S 23°57' W 046°19'0 0.0
2014-Dec-28 14:32S 23°57' W 046°19'0 0.0
2014-Dec-28 13:32S 23°57' W 046°19'0 0.0
2014-Dec-28 12:32S 23°57' W 046°19'0 0.0
2014-Dec-28 11:32S 23°57' W 046°19'0 0.0
2014-Dec-28 10:25S 23°57' W 046°19'0 0.0
2014-Dec-28 09:25S 23°57' W 046°19'0 0.0
2014-Dec-28 08:13S 23°57' W 046°19'0 0.0
2014-Dec-28 07:31S 23°57' W 046°19'0 0.0
2014-Dec-28 06:19S 23°57' W 046°19'0 0.0
2014-Dec-28 05:25S 23°57' W 046°19'0 0.0
2014-Dec-28 04:31S 23°57' W 046°19'0 0.0
2014-Dec-28 03:19S 23°57' W 046°19'0 0.0
2014-Dec-28 02:31S 23°57' W 046°19'0 0.0
2014-Dec-28 01:16S 23°57' W 046°19'0 0.0
2014-Dec-28 00:22S 23°57' W 046°19'0 0.0
2014-Dec-27 23:10S 23°57' W 046°19'3 5.1
2014-Dec-27 22:34S 23°60' W 046°18'7 6.6
2014-Dec-27 21:29S 24°07' W 046°19'2 2.5
2014-Dec-27 20:33S 24°06' W 046°17'0 0.0
2014-Dec-27 19:34S 24°06' W 046°17'0 0.0
2014-Dec-27 18:33S 24°06' W 046°17'0 0.0
2014-Dec-27 17:33S 24°06' W 046°17'0 0.0
2014-Dec-27 16:33S 24°06' W 046°17'0 0.0
2014-Dec-27 15:33S 24°06' W 046°17'0 0.5
2014-Dec-27 14:33S 24°06' W 046°17'6 5.3
2014-Dec-27 13:27S 24°01' W 046°20'0 0.1
2014-Dec-27 12:33S 24°01' W 046°20'0 0.2
2014-Dec-27 11:33S 24°01' W 046°20'0 0.1
2014-Dec-27 10:30S 24°01' W 046°20'0 0.0
2014-Dec-27 09:33S 24°01' W 046°20'4 4.2
2014-Dec-27 08:33S 24°05' W 046°18'2 1.7
2014-Dec-27 07:28S 24°06' W 046°17'0 0.0
2014-Dec-27 06:25S 24°06' W 046°17'0 0.0
2014-Dec-27 04:22S 24°06' W 046°17'0 0.0
2014-Dec-27 03:31S 24°06' W 046°17'0 0.0
2014-Dec-27 02:25S 24°06' W 046°17'0 0.0
2014-Dec-27 00:19S 24°06' W 046°17'0 0.0
2014-Dec-26 23:31S 24°06' W 046°17'0 0.0
2014-Dec-26 22:13S 24°06' W 046°17'0 0.0
2014-Dec-26 21:25S 24°06' W 046°17'0 0.0
2014-Dec-26 18:31S 24°06' W 046°17'0 0.3
2014-Dec-26 17:33S 24°07' W 046°17'5 4.5
2014-Dec-26 16:22S 24°11' W 046°14'22411.2
2014-Dec-25 20:27S 23°48' W 042°10'1312.7
2014-Dec-25 19:25S 23°46' W 041°56'1312.5
2014-Dec-25 18:24S 23°44' W 041°42'1112.8
2014-Dec-25 17:33S 23°42' W 041°31'2712.9
2014-Dec-25 15:29S 23°38' W 041°02'1213.4
2014-Dec-25 14:33S 23°36' W 040°49'  

Dump ship's entire track history